createdAt,value
2023-01-30T00:02:34.053Z,18.27
2023-01-30T00:07:35.478Z,17.60
2023-01-30T00:12:36.932Z,18.07
2023-01-30T00:17:38.368Z,18.10
2023-01-30T00:22:44.209Z,16.67
2023-01-30T00:27:54.057Z,16.45
2023-01-30T00:32:59.699Z,16.80
2023-01-30T00:38:01.203Z,15.57
2023-01-30T00:43:21.333Z,16.08
2023-01-30T00:48:22.882Z,15.25
2023-01-30T00:53:24.561Z,14.25
2023-01-30T00:58:26.606Z,14.10
2023-01-30T01:03:28.138Z,13.65
2023-01-30T01:08:29.639Z,12.47
2023-01-30T01:13:31.323Z,11.60
2023-01-30T01:18:33.636Z,11.77
2023-01-30T01:23:35.105Z,11.33
2023-01-30T01:28:36.561Z,9.93
2023-01-30T01:33:38.208Z,9.27
2023-01-30T01:38:42.117Z,8.48
2023-01-30T01:44:05.166Z,8.13
2023-01-30T01:49:14.199Z,6.70
2023-01-30T01:54:29.642Z,6.88
2023-01-30T01:59:40.124Z,5.45
2023-01-30T02:05:04.468Z,5.18
2023-01-30T02:15:11.004Z,3.47
2023-01-30T02:20:37.469Z,2.83
2023-01-30T02:26:07.743Z,2.13
2023-01-30T02:31:15.169Z,1.90
2023-01-30T02:37:00.296Z,2.72
2023-01-30T02:42:23.636Z,3.30
2023-01-30T02:48:01.237Z,2.47
2023-01-30T02:53:05.231Z,2.50
2023-01-30T02:58:07.293Z,2.85
2023-01-30T03:03:11.767Z,2.38
2023-01-30T03:08:28.366Z,3.15
2023-01-30T03:13:48.522Z,2.72
2023-01-30T03:18:50.268Z,3.25
2023-01-30T03:23:51.935Z,3.40
2023-01-30T03:28:53.993Z,2.58
2023-01-30T03:33:55.417Z,3.17
2023-01-30T03:38:56.916Z,3.28
2023-01-30T03:43:58.436Z,4.07
2023-01-30T03:48:59.906Z,2.97
2023-01-30T03:54:01.432Z,3.22
2023-01-30T03:59:02.871Z,3.03
2023-01-30T04:04:04.534Z,3.87
2023-01-30T04:09:06.114Z,3.20
2023-01-30T04:14:07.565Z,4.82
2023-01-30T04:19:09.057Z,3.60
2023-01-30T04:24:10.600Z,4.50
2023-01-30T04:29:12.030Z,3.93
2023-01-30T04:34:13.541Z,4.07
2023-01-30T04:39:15.036Z,4.50
2023-01-30T04:44:16.560Z,3.80
2023-01-30T04:49:18.051Z,4.90
2023-01-30T04:54:19.544Z,4.50
2023-01-30T04:59:21.053Z,4.10
2023-01-30T05:04:22.497Z,4.57
2023-01-30T05:09:24.045Z,3.93
2023-01-30T05:14:25.521Z,5.97
2023-01-30T05:19:27.002Z,3.20
2023-01-30T05:24:28.615Z,3.53
2023-01-30T05:29:30.171Z,3.30
2023-01-30T05:34:31.635Z,4.10
2023-01-30T05:39:33.308Z,3.40
2023-01-30T05:44:34.775Z,4.90
2023-01-30T05:49:36.563Z,5.53
2023-01-30T05:54:38.194Z,4.03
2023-01-30T05:59:39.678Z,4.00
2023-01-30T06:04:41.202Z,3.63
2023-01-30T06:09:42.622Z,4.23
2023-01-30T06:14:44.118Z,5.00
2023-01-30T06:19:45.567Z,4.63
2023-01-30T06:24:46.999Z,3.10
2023-01-30T06:29:48.482Z,4.13
2023-01-30T06:34:49.982Z,4.20
2023-01-30T06:39:51.423Z,4.10
2023-01-30T06:44:52.862Z,4.73
2023-01-30T06:49:54.334Z,4.93
2023-01-30T06:54:55.752Z,4.82
2023-01-30T06:59:57.163Z,5.23
2023-01-30T07:04:58.662Z,4.63
2023-01-30T07:10:07.789Z,2.87
2023-01-30T07:15:10.129Z,3.95
2023-01-30T07:20:11.868Z,4.47
2023-01-30T07:25:13.411Z,4.87
2023-01-30T07:30:14.963Z,4.77
2023-01-30T07:35:16.555Z,4.03
2023-01-30T07:40:21.658Z,4.60
2023-01-30T07:45:23.081Z,4.13
2023-01-30T07:50:24.763Z,7.93
2023-01-30T07:55:27.101Z,5.40
2023-01-30T08:00:28.630Z,5.05
2023-01-30T08:05:30.135Z,5.88
2023-01-30T08:10:31.613Z,5.93
2023-01-30T08:15:33.492Z,5.95
2023-01-30T08:20:36.202Z,4.38
2023-01-30T08:25:37.933Z,4.53
2023-01-30T08:30:41.514Z,3.60
2023-01-30T08:35:43.133Z,4.57
2023-01-30T08:40:44.888Z,3.93
2023-01-30T08:45:46.309Z,4.23
2023-01-30T08:50:47.818Z,4.17
2023-01-30T08:55:53.176Z,3.40
2023-01-30T09:00:54.657Z,3.17
2023-01-30T09:05:56.523Z,4.18
2023-01-30T09:10:59.915Z,4.75
2023-01-30T09:16:01.569Z,4.40
2023-01-30T09:21:04.567Z,3.88
2023-01-30T09:26:06.737Z,3.15
2023-01-30T09:31:08.687Z,2.85
2023-01-30T09:36:10.203Z,2.80
2023-01-30T09:41:52.810Z,4.15
2023-01-30T09:47:22.929Z,3.55
2023-01-30T09:52:42.431Z,3.80
2023-01-30T09:57:46.732Z,4.35
2023-01-30T10:03:20.215Z,3.85
2023-01-30T10:08:44.136Z,2.58
2023-01-30T10:13:59.149Z,2.20
2023-01-30T10:19:33.854Z,2.53
2023-01-30T10:25:02.400Z,1.65
2023-01-30T10:30:07.591Z,1.35
2023-01-30T10:35:22.036Z,1.58
2023-01-30T10:45:53.490Z,1.40
2023-01-30T10:51:11.734Z,2.20
2023-01-30T10:56:24.919Z,2.35
2023-01-30T11:01:41.812Z,2.30
2023-01-30T11:06:43.563Z,2.85
2023-01-30T11:11:53.634Z,1.73
2023-01-30T11:16:57.678Z,2.10
2023-01-30T11:22:05.158Z,4.13
2023-01-30T11:27:16.729Z,2.97
2023-01-30T11:32:28.874Z,2.78
2023-01-30T11:37:36.374Z,3.42
2023-01-30T11:42:44.410Z,3.45
2023-01-30T11:47:57.967Z,4.05
2023-01-30T11:53:05.078Z,2.40
2023-01-30T11:58:09.870Z,2.88
2023-01-30T12:03:14.595Z,2.95
2023-01-30T12:08:39.427Z,3.45
2023-01-30T12:13:45.453Z,2.05
2023-01-30T12:19:06.250Z,3.05
2023-01-30T12:24:13.730Z,2.58
2023-01-30T12:29:35.998Z,2.47
2023-01-30T12:34:37.733Z,2.83
2023-01-30T12:40:15.993Z,2.72
2023-01-30T12:45:23.899Z,1.80
2023-01-30T12:50:54.298Z,2.00
2023-01-30T12:56:04.609Z,2.13
2023-01-30T13:01:25.324Z,1.63
2023-01-30T13:07:01.049Z,1.35
2023-01-30T13:12:14.135Z,1.27
2023-01-30T13:17:53.147Z,2.33
2023-01-30T13:23:01.945Z,2.53
2023-01-30T13:28:11.826Z,3.75
2023-01-30T13:33:21.025Z,3.63
2023-01-30T13:38:27.297Z,5.57
2023-01-30T13:43:35.664Z,4.10
2023-01-30T13:48:58.485Z,4.15
2023-01-30T13:54:16.800Z,3.78
2023-01-30T14:00:03.625Z,2.97
2023-01-30T14:05:05.862Z,3.80
2023-01-30T14:10:10.323Z,4.10
2023-01-30T14:15:14.837Z,3.58
2023-01-30T14:20:20.654Z,3.42
2023-01-30T14:25:35.204Z,5.00
2023-01-30T14:30:45.715Z,4.03
2023-01-30T14:36:02.393Z,5.53
2023-01-30T14:41:03.984Z,4.00
2023-01-30T14:46:19.193Z,4.38
2023-01-30T14:51:39.115Z,5.40
2023-01-30T14:56:49.764Z,4.75
2023-01-30T15:02:03.501Z,5.35
2023-01-30T15:07:29.122Z,4.30
2023-01-30T15:12:49.081Z,6.45
2023-01-30T15:18:18.797Z,5.35
2023-01-30T15:23:36.640Z,4.90
2023-01-30T15:29:24.194Z,5.07
2023-01-30T15:34:35.988Z,4.28
2023-01-30T15:39:37.442Z,5.13
2023-01-30T15:45:21.374Z,5.22
2023-01-30T15:55:28.635Z,5.40
2023-01-30T16:00:34.576Z,4.55
2023-01-30T16:05:36.071Z,5.22
2023-01-30T16:10:45.303Z,5.30
2023-01-30T16:16:12.660Z,5.88
2023-01-30T16:21:19.627Z,4.65
2023-01-30T16:26:24.519Z,5.18
2023-01-30T16:31:31.878Z,4.22
2023-01-30T16:36:39.830Z,4.93
2023-01-30T16:41:43.166Z,4.10
2023-01-30T16:46:46.127Z,4.17
2023-01-30T16:51:49.186Z,4.38
2023-01-30T16:56:55.655Z,4.10
2023-01-30T17:01:59.074Z,4.30
2023-01-30T17:07:04.769Z,3.00
2023-01-30T17:12:29.902Z,2.53
2023-01-30T17:17:31.393Z,4.05
2023-01-30T17:22:33.404Z,2.78
2023-01-30T17:27:34.935Z,3.00
2023-01-30T17:32:36.365Z,3.10
2023-01-30T17:37:38.324Z,5.18
2023-01-30T17:42:39.857Z,3.10
2023-01-30T17:47:41.398Z,3.87
2023-01-30T17:52:42.991Z,3.90
2023-01-30T17:57:47.510Z,3.57
2023-01-30T18:02:49.198Z,2.67
2023-01-30T18:07:50.730Z,3.40
2023-01-30T18:12:52.201Z,3.30
2023-01-30T18:17:56.806Z,3.33
2023-01-30T18:27:59.634Z,5.63
2023-01-30T18:33:01.098Z,3.43
2023-01-30T18:38:03.167Z,3.80
2023-01-30T18:43:04.799Z,3.40
2023-01-30T18:48:06.447Z,3.90
2023-01-30T18:53:09.151Z,4.57
2023-01-30T18:58:10.671Z,5.03
2023-01-30T19:03:12.139Z,4.63
2023-01-30T19:08:13.610Z,3.03
2023-01-30T19:13:33.097Z,3.27
2023-01-30T19:18:34.537Z,3.77
2023-01-30T19:23:36.101Z,3.43
2023-01-30T19:28:38.171Z,4.07
2023-01-30T19:33:40.600Z,4.23
2023-01-30T19:38:43.055Z,4.03
2023-01-30T19:43:44.526Z,4.20
2023-01-30T19:48:56.432Z,4.20
2023-01-30T19:54:00.245Z,5.47
2023-01-30T19:59:02.284Z,5.93
2023-01-30T20:04:04.127Z,4.70
2023-01-30T20:09:09.758Z,4.03
2023-01-30T20:14:11.628Z,3.73
2023-01-30T20:19:15.442Z,3.30
2023-01-30T20:24:17.096Z,3.03
2023-01-30T20:29:18.818Z,3.30
2023-01-30T20:34:20.642Z,2.93
2023-01-30T20:39:22.179Z,3.07
2023-01-30T20:44:24.368Z,3.47
2023-01-30T20:49:26.355Z,3.67
2023-01-30T20:54:28.294Z,3.93
2023-01-30T20:59:29.958Z,3.27
2023-01-30T21:04:31.441Z,3.10
2023-01-30T21:09:32.940Z,2.90
2023-01-30T21:14:34.359Z,3.07
2023-01-30T21:19:38.151Z,4.67
2023-01-30T21:24:43.137Z,2.37
2023-01-30T21:29:44.603Z,3.90
2023-01-30T21:34:46.118Z,2.20
2023-01-30T21:40:06.012Z,2.97
2023-01-30T21:45:08.138Z,3.70
2023-01-30T21:50:10.832Z,3.63
2023-01-30T21:55:12.313Z,3.10
2023-01-30T22:00:14.480Z,4.03
2023-01-30T22:05:16.021Z,2.03
2023-01-30T22:10:17.569Z,2.33
2023-01-30T22:15:21.638Z,2.50
2023-01-30T22:20:23.400Z,3.00
2023-01-30T22:25:24.822Z,1.73
2023-01-30T22:30:26.241Z,2.13
2023-01-30T22:35:28.878Z,1.93
2023-01-30T22:40:30.411Z,2.97
2023-01-30T22:45:34.719Z,1.87
2023-01-30T22:50:36.170Z,2.10
2023-01-30T22:55:38.505Z,2.33
2023-01-30T23:00:40.322Z,3.10
2023-01-30T23:05:42.822Z,2.30
2023-01-30T23:10:44.366Z,3.23
2023-01-30T23:15:46.838Z,1.80
2023-01-30T23:20:48.270Z,1.57
2023-01-30T23:25:49.742Z,1.57
2023-01-30T23:30:51.257Z,1.93
2023-01-30T23:35:52.761Z,1.80
2023-01-30T23:40:54.209Z,1.53
2023-01-30T23:45:56.273Z,2.57
2023-01-30T23:51:01.863Z,2.60
2023-01-30T23:56:04.164Z,2.23
